DLH6WA EDDM-KJFK
Flight info
| Callsign | DLH6WA |
|---|---|
| Flight time | 5h 2m |
| Altitude | 38000 |
| Route | GIVMI6Q GIVMI Y101 INBED DCT REKDI DCT LOHRE DCT BUB L608 DENUT L610 KOPUL Q60 OKSAW DCT BIBPE DCT FELCA/N0485F400 DCT OFSOX DCT SLANY DCT OLGON DCT NEBIN/M084F390 NATE BUDAR/N0489F400 N446A MIILS DCT ENE PARCH4 |
| Aircraft | A359/H-SDE2E3GHIJ1J3J4J5LM1ORWXY/LB1D1 |
Departure
| Time | 2026-05-09 11:11 |
|---|---|
| Airport | Munich Airport (EDDM) |
Arrival
| Time | 2026-05-09 16:13 |
|---|---|
| Airport | John F. Kennedy International Airport (KJFK) |
| Time | Latitude | Longitude | Altitude | Speed | Heading |
|---|---|---|---|---|---|
| 2026-05-09 09:45 | 48.35085 | 11.80928 | 1476 ft | 0 kts | 173° |
| 2026-05-09 10:30 | 48.35093 | 11.80926 | 1476 ft | 4 kts | 173° |
| 2026-05-09 10:30 | 48.35120 | 11.80922 | 1476 ft | 4 kts | 173° |
| 2026-05-09 10:31 | 48.35142 | 11.80918 | 1476 ft | 4 kts | 176° |
| 2026-05-09 10:31 | 48.35165 | 11.80924 | 1476 ft | 4 kts | 227° |
| 2026-05-09 10:31 | 48.35174 | 11.80955 | 1476 ft | 4 kts | 263° |
| 2026-05-09 10:31 | 48.35177 | 11.80994 | 1476 ft | 2 kts | 263° |
| 2026-05-09 10:32 | 48.35177 | 11.80996 | 1476 ft | 0 kts | 263° |
| 2026-05-09 10:41 | 48.35181 | 11.80964 | 1488 ft | 7 kts | 284° |
| 2026-05-09 10:41 | 48.35198 | 11.80891 | 1483 ft | 8 kts | 290° |
| 2026-05-09 10:41 | 48.35211 | 11.80793 | 1478 ft | 10 kts | 272° |
| 2026-05-09 10:42 | 48.35206 | 11.80679 | 1480 ft | 12 kts | 264° |
| 2026-05-09 10:42 | 48.35196 | 11.80548 | 1479 ft | 13 kts | 262° |
| 2026-05-09 10:42 | 48.35185 | 11.80403 | 1481 ft | 15 kts | 263° |
| 2026-05-09 10:42 | 48.35173 | 11.80251 | 1488 ft | 9 kts | 263° |
| 2026-05-09 10:43 | 48.35197 | 11.80187 | 1476 ft | 6 kts | 339° |
| 2026-05-09 10:43 | 48.35232 | 11.80181 | 1480 ft | 0 kts | 354° |
| 2026-05-09 10:46 | 48.35245 | 11.80179 | 1478 ft | 9 kts | 354° |
| 2026-05-09 10:46 | 48.35337 | 11.80163 | 1492 ft | 13 kts | 353° |
| 2026-05-09 10:46 | 48.35418 | 11.80139 | 1485 ft | 11 kts | 351° |
| 2026-05-09 10:47 | 48.35498 | 11.80125 | 1480 ft | 12 kts | 353° |
| 2026-05-09 10:47 | 48.35546 | 11.80116 | 1485 ft | 0 kts | 353° |
| 2026-05-09 10:49 | 48.35569 | 11.80113 | 1483 ft | 9 kts | 353° |
| 2026-05-09 10:49 | 48.35637 | 11.80101 | 1478 ft | 11 kts | 353° |
| 2026-05-09 10:50 | 48.35711 | 11.80078 | 1486 ft | 11 kts | 351° |
| 2026-05-09 10:50 | 48.35773 | 11.80068 | 1478 ft | 9 kts | 353° |
| 2026-05-09 10:50 | 48.35816 | 11.80041 | 1476 ft | 7 kts | 321° |
| 2026-05-09 10:50 | 48.35827 | 11.79978 | 1488 ft | 7 kts | 264° |
| 2026-05-09 10:51 | 48.35826 | 11.79961 | 1488 ft | 0 kts | 264° |
| 2026-05-09 10:53 | 48.35825 | 11.79951 | 1490 ft | 5 kts | 264° |
| 2026-05-09 10:53 | 48.35818 | 11.79849 | 1478 ft | 11 kts | 264° |
| 2026-05-09 10:53 | 48.35809 | 11.79722 | 1481 ft | 13 kts | 264° |
| 2026-05-09 10:54 | 48.35797 | 11.79577 | 1484 ft | 14 kts | 263° |
| 2026-05-09 10:54 | 48.35790 | 11.79451 | 1476 ft | 8 kts | 272° |
| 2026-05-09 10:54 | 48.35813 | 11.79396 | 1476 ft | 6 kts | 326° |
| 2026-05-09 10:54 | 48.35868 | 11.79381 | 1481 ft | 12 kts | 351° |
| 2026-05-09 10:55 | 48.35959 | 11.79340 | 1486 ft | 14 kts | 349° |
| 2026-05-09 10:55 | 48.36060 | 11.79319 | 1485 ft | 14 kts | 346° |
| 2026-05-09 10:55 | 48.36087 | 11.79215 | 1483 ft | 12 kts | 261° |
| 2026-05-09 10:55 | 48.36067 | 11.78987 | 1476 ft | 32 kts | 263° |
| 2026-05-09 10:56 | 48.36039 | 11.78614 | 1484 ft | 36 kts | 263° |
| 2026-05-09 10:56 | 48.36010 | 11.78237 | 1491 ft | 36 kts | 263° |
| 2026-05-09 10:56 | 48.35981 | 11.77861 | 1484 ft | 36 kts | 263° |
| 2026-05-09 10:56 | 48.35954 | 11.77500 | 1483 ft | 27 kts | 263° |
| 2026-05-09 10:57 | 48.35937 | 11.77286 | 1478 ft | 19 kts | 264° |
| 2026-05-09 10:57 | 48.35921 | 11.77080 | 1481 ft | 20 kts | 263° |
| 2026-05-09 10:57 | 48.35907 | 11.76905 | 1485 ft | 9 kts | 263° |
| 2026-05-09 10:57 | 48.35900 | 11.76809 | 1485 ft | 9 kts | 266° |
| 2026-05-09 10:58 | 48.35915 | 11.76724 | 1484 ft | 9 kts | 298° |
| 2026-05-09 10:58 | 48.35941 | 11.76690 | 1478 ft | 2 kts | 326° |
| 2026-05-09 10:58 | 48.35943 | 11.76688 | 1476 ft | 0 kts | 327° |
| 2026-05-09 11:03 | 48.35950 | 11.76682 | 1478 ft | 1 kts | 333° |
| 2026-05-09 11:03 | 48.35991 | 11.76663 | 1476 ft | 9 kts | 349° |
| 2026-05-09 11:04 | 48.36022 | 11.76656 | 1485 ft | 0 kts | 353° |
| 2026-05-09 11:04 | 48.36031 | 11.76654 | 1489 ft | 6 kts | 353° |
| 2026-05-09 11:04 | 48.36052 | 11.76650 | 1487 ft | 0 kts | 353° |
| 2026-05-09 11:07 | 48.36092 | 11.76646 | 1476 ft | 9 kts | 359° |
| 2026-05-09 11:07 | 48.36132 | 11.76658 | 1479 ft | 6 kts | 19° |
| 2026-05-09 11:08 | 48.36135 | 11.76661 | 1478 ft | 0 kts | 27° |
| 2026-05-09 11:08 | 48.36156 | 11.76680 | 1476 ft | 13 kts | 31° |
| 2026-05-09 11:08 | 48.36229 | 11.76771 | 1476 ft | 13 kts | 48° |
| 2026-05-09 11:09 | 48.36280 | 11.76889 | 1476 ft | 14 kts | 67° |
| 2026-05-09 11:09 | 48.36292 | 11.76970 | 1481 ft | 0 kts | 81° |
| 2026-05-09 11:10 | 48.36292 | 11.76971 | 1481 ft | 2 kts | 81° |
| 2026-05-09 11:10 | 48.36320 | 11.77317 | 1482 ft | 65 kts | 84° |
| 2026-05-09 11:10 | 48.36393 | 11.78289 | 1480 ft | 121 kts | 83° |
| 2026-05-09 11:10 | 48.36510 | 11.79773 | 1526 ft | 161 kts | 85° |
| 2026-05-09 11:11 | 48.36593 | 11.81357 | 2213 ft | 153 kts | 85° |
| 2026-05-09 11:11 | 48.36694 | 11.83009 | 2620 ft | 167 kts | 81° |
| 2026-05-09 11:11 | 48.37216 | 11.84684 | 2784 ft | 193 kts | 46° |
| 2026-05-09 11:11 | 48.38482 | 11.85619 | 3058 ft | 214 kts | 16° |
| 2026-05-09 11:12 | 48.40009 | 11.86112 | 3372 ft | 237 kts | 9° |
| 2026-05-09 11:12 | 48.41725 | 11.85889 | 3707 ft | 260 kts | 341° |
| 2026-05-09 11:12 | 48.43220 | 11.84292 | 4349 ft | 271 kts | 314° |
| 2026-05-09 11:12 | 48.44464 | 11.82127 | 5086 ft | 275 kts | 310° |
| 2026-05-09 11:13 | 48.45677 | 11.79910 | 5959 ft | 273 kts | 310° |
| 2026-05-09 11:13 | 48.46892 | 11.77711 | 6805 ft | 273 kts | 309° |
| 2026-05-09 11:13 | 48.48118 | 11.75520 | 7626 ft | 274 kts | 309° |
| 2026-05-09 11:13 | 48.49343 | 11.73343 | 8546 ft | 272 kts | 309° |
| 2026-05-09 11:14 | 48.50579 | 11.71157 | 9340 ft | 276 kts | 308° |
| 2026-05-09 11:14 | 48.51828 | 11.68948 | 10169 ft | 278 kts | 308° |
| 2026-05-09 11:14 | 48.53091 | 11.66714 | 10901 ft | 281 kts | 308° |
| 2026-05-09 11:14 | 48.54368 | 11.64458 | 11649 ft | 285 kts | 308° |
| 2026-05-09 11:15 | 48.55665 | 11.62165 | 12389 ft | 288 kts | 309° |
| 2026-05-09 11:15 | 48.56973 | 11.59849 | 13131 ft | 292 kts | 309° |
| 2026-05-09 11:15 | 48.58317 | 11.57476 | 13636 ft | 305 kts | 309° |
| 2026-05-09 11:15 | 48.59731 | 11.54966 | 13949 ft | 322 kts | 309° |
| 2026-05-09 11:16 | 48.61221 | 11.52318 | 14230 ft | 339 kts | 309° |
| 2026-05-09 11:16 | 48.62779 | 11.49547 | 14590 ft | 352 kts | 309° |
| 2026-05-09 11:16 | 48.64380 | 11.46702 | 15148 ft | 357 kts | 309° |
| 2026-05-09 11:16 | 48.65997 | 11.43826 | 15779 ft | 361 kts | 309° |
| 2026-05-09 11:17 | 48.67631 | 11.40916 | 16433 ft | 364 kts | 309° |
| 2026-05-09 11:17 | 48.69296 | 11.37984 | 17076 ft | 368 kts | 311° |
| 2026-05-09 11:17 | 48.71157 | 11.35387 | 17716 ft | 373 kts | 320° |
| 2026-05-09 11:17 | 48.73246 | 11.33018 | 18389 ft | 377 kts | 323° |
| 2026-05-09 11:18 | 48.75428 | 11.30791 | 18986 ft | 381 kts | 326° |
| 2026-05-09 11:18 | 48.77667 | 11.28601 | 19565 ft | 385 kts | 327° |
| 2026-05-09 11:18 | 48.79941 | 11.26430 | 20189 ft | 387 kts | 327° |
| 2026-05-09 11:18 | 48.82234 | 11.24263 | 20830 ft | 390 kts | 327° |
| 2026-05-09 11:19 | 48.84548 | 11.22077 | 21446 ft | 393 kts | 327° |
| 2026-05-09 11:19 | 48.86872 | 11.19880 | 22056 ft | 396 kts | 327° |
| 2026-05-09 11:19 | 48.89213 | 11.17654 | 22658 ft | 398 kts | 327° |
| 2026-05-09 11:19 | 48.91569 | 11.15402 | 23262 ft | 401 kts | 327° |
| 2026-05-09 11:20 | 48.93940 | 11.13128 | 23845 ft | 404 kts | 327° |
| 2026-05-09 11:20 | 48.96324 | 11.10836 | 24331 ft | 407 kts | 327° |
| 2026-05-09 11:20 | 48.98727 | 11.08525 | 24832 ft | 409 kts | 327° |
| 2026-05-09 11:20 | 49.01144 | 11.06196 | 25279 ft | 413 kts | 327° |
| 2026-05-09 11:21 | 49.03576 | 11.03852 | 25785 ft | 415 kts | 328° |
| 2026-05-09 11:21 | 49.06020 | 11.01495 | 26289 ft | 416 kts | 328° |
| 2026-05-09 11:21 | 49.08477 | 10.99125 | 26780 ft | 419 kts | 328° |
| 2026-05-09 11:21 | 49.10948 | 10.96742 | 27250 ft | 422 kts | 328° |
| 2026-05-09 11:22 | 49.13439 | 10.94331 | 27714 ft | 425 kts | 328° |
| 2026-05-09 11:22 | 49.15944 | 10.91905 | 28189 ft | 427 kts | 328° |
| 2026-05-09 11:22 | 49.18457 | 10.89464 | 28640 ft | 430 kts | 328° |
| 2026-05-09 11:22 | 49.20885 | 10.86773 | 29067 ft | 433 kts | 321° |
| 2026-05-09 11:23 | 49.23111 | 10.83658 | 29518 ft | 436 kts | 314° |
| 2026-05-09 11:23 | 49.25026 | 10.80034 | 29892 ft | 441 kts | 306° |
| 2026-05-09 11:23 | 49.26606 | 10.75981 | 30214 ft | 447 kts | 300° |
| 2026-05-09 11:23 | 49.28020 | 10.71720 | 30567 ft | 450 kts | 297° |
| 2026-05-09 11:24 | 49.29318 | 10.67420 | 30900 ft | 452 kts | 296° |
| 2026-05-09 11:24 | 49.30598 | 10.63003 | 31113 ft | 454 kts | 296° |
| 2026-05-09 11:24 | 49.31868 | 10.58571 | 31135 ft | 454 kts | 296° |
| 2026-05-09 11:25 | 49.34429 | 10.49722 | 31138 ft | 454 kts | 296° |
| 2026-05-09 11:25 | 49.37035 | 10.40852 | 31538 ft | 457 kts | 296° |
| 2026-05-09 11:25 | 49.38348 | 10.36402 | 31925 ft | 458 kts | 296° |
| 2026-05-09 11:26 | 49.39663 | 10.31942 | 32258 ft | 460 kts | 296° |
| 2026-05-09 11:26 | 49.40981 | 10.27464 | 32548 ft | 461 kts | 296° |
| 2026-05-09 11:26 | 49.42302 | 10.22967 | 32869 ft | 463 kts | 296° |
| 2026-05-09 11:26 | 49.43625 | 10.18453 | 33168 ft | 464 kts | 296° |
| 2026-05-09 11:27 | 49.44950 | 10.13920 | 33446 ft | 466 kts | 296° |
| 2026-05-09 11:27 | 49.46282 | 10.09355 | 33718 ft | 468 kts | 296° |
| 2026-05-09 11:27 | 49.47612 | 10.04788 | 33982 ft | 469 kts | 296° |
| 2026-05-09 11:27 | 49.48943 | 10.00205 | 34306 ft | 468 kts | 296° |
| 2026-05-09 11:28 | 49.50266 | 9.95641 | 34624 ft | 467 kts | 295° |
| 2026-05-09 11:28 | 49.51587 | 9.91075 | 34894 ft | 467 kts | 295° |
| 2026-05-09 11:28 | 49.52907 | 9.86506 | 35118 ft | 467 kts | 295° |
| 2026-05-09 11:28 | 49.54229 | 9.81921 | 35354 ft | 468 kts | 295° |
| 2026-05-09 11:29 | 49.55546 | 9.77346 | 35625 ft | 467 kts | 295° |
| 2026-05-09 11:29 | 49.56860 | 9.72772 | 35871 ft | 468 kts | 295° |
| 2026-05-09 11:29 | 49.58177 | 9.68178 | 36047 ft | 469 kts | 295° |
| 2026-05-09 11:29 | 49.59446 | 9.63551 | 36286 ft | 469 kts | 290° |
| 2026-05-09 11:30 | 49.60234 | 9.58671 | 36532 ft | 470 kts | 279° |
| 2026-05-09 11:30 | 49.60524 | 9.53650 | 36777 ft | 471 kts | 274° |
| 2026-05-09 11:30 | 49.60674 | 9.48678 | 37030 ft | 470 kts | 274° |
| 2026-05-09 11:30 | 49.60807 | 9.43648 | 37268 ft | 469 kts | 274° |
| 2026-05-09 11:31 | 49.60942 | 9.38631 | 37533 ft | 468 kts | 274° |
| 2026-05-09 11:31 | 49.61083 | 9.33635 | 37775 ft | 467 kts | 274° |
| 2026-05-09 11:31 | 49.61229 | 9.28637 | 38003 ft | 466 kts | 274° |
| 2026-05-09 11:31 | 49.61378 | 9.23639 | 38104 ft | 468 kts | 274° |
| 2026-05-09 11:32 | 49.61531 | 9.18619 | 38106 ft | 469 kts | 274° |
| 2026-05-09 11:32 | 49.61861 | 9.08574 | 38102 ft | 469 kts | 276° |
| 2026-05-09 11:33 | 49.63253 | 8.98816 | 38099 ft | 467 kts | 291° |
| 2026-05-09 11:33 | 49.67243 | 8.85113 | 38104 ft | 467 kts | 296° |
| 2026-05-09 11:34 | 49.70106 | 8.76122 | 38101 ft | 467 kts | 296° |
| 2026-05-09 11:34 | 49.72941 | 8.67099 | 38096 ft | 467 kts | 295° |
| 2026-05-09 11:35 | 49.75742 | 8.58045 | 38103 ft | 467 kts | 295° |
| 2026-05-09 11:35 | 49.78528 | 8.48971 | 38098 ft | 467 kts | 295° |
| 2026-05-09 11:36 | 49.81305 | 8.39890 | 38105 ft | 467 kts | 295° |
| 2026-05-09 11:36 | 49.84078 | 8.30795 | 38106 ft | 467 kts | 295° |
| 2026-05-09 11:37 | 49.86842 | 8.21698 | 38104 ft | 467 kts | 295° |
| 2026-05-09 11:37 | 49.89600 | 8.12587 | 38111 ft | 467 kts | 295° |
| 2026-05-09 11:38 | 49.92357 | 8.03449 | 38124 ft | 468 kts | 295° |
| 2026-05-09 11:38 | 49.95103 | 7.94308 | 38121 ft | 468 kts | 295° |
| 2026-05-09 11:39 | 49.97846 | 7.85143 | 38116 ft | 468 kts | 295° |
| 2026-05-09 11:40 | 50.01932 | 7.71428 | 38123 ft | 468 kts | 294° |
| 2026-05-09 11:40 | 50.04661 | 7.62226 | 38113 ft | 469 kts | 294° |
| 2026-05-09 11:41 | 50.07385 | 7.53003 | 38114 ft | 469 kts | 294° |
| 2026-05-09 11:41 | 50.10103 | 7.43766 | 38109 ft | 469 kts | 294° |
| 2026-05-09 11:42 | 50.12811 | 7.34525 | 38107 ft | 469 kts | 294° |
| 2026-05-09 11:42 | 50.15518 | 7.25256 | 38104 ft | 470 kts | 294° |
| 2026-05-09 11:43 | 50.18221 | 7.15963 | 38101 ft | 470 kts | 294° |
| 2026-05-09 11:43 | 50.20919 | 7.06652 | 38112 ft | 470 kts | 294° |
| 2026-05-09 11:44 | 50.23604 | 6.97349 | 38102 ft | 470 kts | 294° |
| 2026-05-09 11:44 | 50.26283 | 6.88034 | 38102 ft | 470 kts | 293° |
| 2026-05-09 11:45 | 50.28961 | 6.78682 | 38094 ft | 472 kts | 293° |
| 2026-05-09 11:45 | 50.31635 | 6.69306 | 38093 ft | 472 kts | 293° |
| 2026-05-09 11:46 | 50.34303 | 6.59917 | 38086 ft | 472 kts | 293° |
| 2026-05-09 11:46 | 50.36963 | 6.50517 | 38087 ft | 472 kts | 292° |
| 2026-05-09 11:47 | 50.39415 | 6.40995 | 38083 ft | 471 kts | 281° |
| 2026-05-09 11:47 | 50.44470 | 6.21874 | 38092 ft | 474 kts | 297° |
| 2026-05-09 11:48 | 50.50212 | 6.03288 | 38105 ft | 473 kts | 292° |
| 2026-05-09 11:48 | 50.55422 | 5.84270 | 38106 ft | 474 kts | 291° |
| 2026-05-09 11:49 | 50.60627 | 5.65197 | 38111 ft | 474 kts | 291° |
| 2026-05-09 11:49 | 50.65817 | 5.46068 | 38101 ft | 476 kts | 291° |
| 2026-05-09 11:50 | 50.70950 | 5.26989 | 38105 ft | 476 kts | 291° |
| 2026-05-09 11:50 | 50.74824 | 5.12482 | 38120 ft | 476 kts | 290° |
| 2026-05-09 11:51 | 50.77394 | 5.02807 | 38127 ft | 478 kts | 290° |
| 2026-05-09 11:51 | 50.79954 | 4.93129 | 38117 ft | 477 kts | 290° |
| 2026-05-09 11:52 | 50.82506 | 4.83443 | 38116 ft | 477 kts | 290° |
| 2026-05-09 11:52 | 50.85047 | 4.73757 | 38119 ft | 477 kts | 290° |
| 2026-05-09 11:53 | 50.87580 | 4.64061 | 38135 ft | 478 kts | 290° |
| 2026-05-09 11:53 | 50.90212 | 4.54363 | 38129 ft | 482 kts | 295° |
| 2026-05-09 11:54 | 50.93557 | 4.45141 | 38132 ft | 483 kts | 298° |
| 2026-05-09 11:54 | 50.97041 | 4.36032 | 38132 ft | 483 kts | 298° |
| 2026-05-09 11:55 | 51.00550 | 4.26915 | 38120 ft | 483 kts | 298° |
| 2026-05-09 11:56 | 51.10956 | 3.99540 | 38114 ft | 483 kts | 298° |
| 2026-05-09 11:57 | 51.13854 | 3.91851 | 38114 ft | 483 kts | 298° |
| 2026-05-09 11:57 | 51.17306 | 3.82663 | 38113 ft | 483 kts | 298° |
| 2026-05-09 11:58 | 51.20732 | 3.73514 | 38109 ft | 485 kts | 298° |
| 2026-05-09 11:58 | 51.23670 | 3.63798 | 38110 ft | 481 kts | 284° |
| 2026-05-09 11:59 | 51.25302 | 3.53550 | 38108 ft | 479 kts | 279° |
| 2026-05-09 11:59 | 51.26680 | 3.43155 | 38108 ft | 479 kts | 278° |
| 2026-05-09 12:00 | 51.28010 | 3.32732 | 38128 ft | 479 kts | 278° |
| 2026-05-09 12:00 | 51.29328 | 3.22293 | 38108 ft | 480 kts | 278° |
| 2026-05-09 12:01 | 51.30650 | 3.11842 | 38106 ft | 480 kts | 278° |
| 2026-05-09 12:01 | 51.31971 | 3.01389 | 38117 ft | 480 kts | 278° |
| 2026-05-09 12:02 | 51.33284 | 2.90932 | 38116 ft | 480 kts | 278° |
| 2026-05-09 12:02 | 51.34588 | 2.80463 | 38119 ft | 480 kts | 278° |
| 2026-05-09 12:03 | 51.35886 | 2.69971 | 38121 ft | 481 kts | 278° |
| 2026-05-09 12:03 | 51.37171 | 2.59534 | 38117 ft | 481 kts | 277° |
| 2026-05-09 12:04 | 51.38456 | 2.49025 | 38116 ft | 481 kts | 277° |
| 2026-05-09 12:04 | 51.39731 | 2.38513 | 38138 ft | 481 kts | 277° |
| 2026-05-09 12:05 | 51.40998 | 2.27979 | 38113 ft | 482 kts | 277° |
| 2026-05-09 12:05 | 51.42276 | 2.17438 | 38118 ft | 482 kts | 277° |
| 2026-05-09 12:06 | 51.43562 | 2.06893 | 38118 ft | 482 kts | 277° |
| 2026-05-09 12:06 | 51.44840 | 1.96345 | 38116 ft | 482 kts | 277° |
| 2026-05-09 12:07 | 51.46088 | 1.85787 | 38114 ft | 482 kts | 277° |
| 2026-05-09 12:07 | 51.47312 | 1.75208 | 38111 ft | 482 kts | 277° |
| 2026-05-09 12:08 | 51.48519 | 1.64628 | 38116 ft | 482 kts | 276° |
| 2026-05-09 12:08 | 51.49727 | 1.54041 | 38116 ft | 482 kts | 276° |
| 2026-05-09 12:09 | 51.50923 | 1.43446 | 38128 ft | 482 kts | 276° |
| 2026-05-09 12:09 | 51.52109 | 1.32840 | 38127 ft | 483 kts | 276° |
| 2026-05-09 12:10 | 51.54455 | 1.11601 | 38128 ft | 482 kts | 276° |
| 2026-05-09 12:11 | 51.55240 | 1.00936 | 38127 ft | 480 kts | 271° |
| 2026-05-09 12:11 | 51.55804 | 0.90254 | 38133 ft | 480 kts | 271° |
| 2026-05-09 12:12 | 51.56404 | 0.79546 | 38128 ft | 481 kts | 271° |
| 2026-05-09 12:12 | 51.57044 | 0.68908 | 38130 ft | 481 kts | 272° |
| 2026-05-09 12:13 | 51.57698 | 0.58203 | 38128 ft | 481 kts | 272° |
| 2026-05-09 12:13 | 51.58341 | 0.47502 | 38150 ft | 481 kts | 271° |
| 2026-05-09 12:14 | 51.58973 | 0.36794 | 38123 ft | 481 kts | 271° |
| 2026-05-09 12:14 | 51.59594 | 0.26076 | 38106 ft | 482 kts | 271° |
| 2026-05-09 12:15 | 51.60205 | 0.15348 | 38103 ft | 481 kts | 271° |
| 2026-05-09 12:15 | 51.60806 | 0.04622 | 38102 ft | 481 kts | 271° |
| 2026-05-09 12:16 | 51.61398 | -0.06109 | 38166 ft | 481 kts | 271° |
| 2026-05-09 12:16 | 51.61991 | -0.16845 | 38182 ft | 482 kts | 271° |
| 2026-05-09 12:17 | 51.62654 | -0.27589 | 38185 ft | 482 kts | 272° |
| 2026-05-09 12:17 | 51.63324 | -0.38318 | 38102 ft | 482 kts | 272° |
| 2026-05-09 12:18 | 51.63975 | -0.49070 | 38107 ft | 482 kts | 271° |
| 2026-05-09 12:18 | 51.64603 | -0.59738 | 38103 ft | 482 kts | 271° |
| 2026-05-09 12:19 | 51.65224 | -0.70483 | 38108 ft | 482 kts | 271° |
| 2026-05-09 12:19 | 51.65835 | -0.81227 | 38106 ft | 482 kts | 271° |
| 2026-05-09 12:20 | 51.66436 | -0.91972 | 38107 ft | 482 kts | 271° |
| 2026-05-09 12:20 | 51.67027 | -1.02727 | 38106 ft | 482 kts | 271° |
| 2026-05-09 12:21 | 51.67609 | -1.13480 | 38103 ft | 482 kts | 271° |
| 2026-05-09 12:21 | 51.68181 | -1.24230 | 38102 ft | 482 kts | 271° |
| 2026-05-09 12:22 | 51.68744 | -1.34991 | 38103 ft | 482 kts | 271° |
| 2026-05-09 12:22 | 51.69296 | -1.45752 | 38121 ft | 482 kts | 271° |
| 2026-05-09 12:23 | 51.69839 | -1.56515 | 38105 ft | 482 kts | 271° |
| 2026-05-09 12:23 | 51.70372 | -1.67292 | 38104 ft | 482 kts | 271° |
| 2026-05-09 12:24 | 51.71019 | -1.78052 | 38109 ft | 483 kts | 273° |
| 2026-05-09 12:24 | 51.71847 | -1.88809 | 38128 ft | 483 kts | 274° |
| 2026-05-09 12:25 | 51.72661 | -1.99565 | 38131 ft | 483 kts | 273° |
| 2026-05-09 12:25 | 51.73428 | -2.10337 | 38124 ft | 483 kts | 273° |
| 2026-05-09 12:26 | 51.74172 | -2.21112 | 38135 ft | 483 kts | 273° |
| 2026-05-09 12:26 | 51.74900 | -2.31819 | 38131 ft | 483 kts | 273° |
| 2026-05-09 12:27 | 51.75626 | -2.42597 | 38142 ft | 483 kts | 273° |
| 2026-05-09 12:27 | 51.76342 | -2.53389 | 38108 ft | 484 kts | 273° |
| 2026-05-09 12:28 | 51.77049 | -2.64196 | 38112 ft | 484 kts | 273° |
| 2026-05-09 12:28 | 51.77747 | -2.75004 | 38121 ft | 484 kts | 272° |
| 2026-05-09 12:29 | 51.78435 | -2.85807 | 38152 ft | 483 kts | 272° |
| 2026-05-09 12:29 | 51.79112 | -2.96608 | 38156 ft | 483 kts | 272° |
| 2026-05-09 12:30 | 51.79779 | -3.07412 | 38156 ft | 484 kts | 272° |
| 2026-05-09 12:30 | 51.80763 | -3.23635 | 38139 ft | 484 kts | 272° |
| 2026-05-09 12:31 | 51.81723 | -3.39863 | 38120 ft | 484 kts | 272° |
| 2026-05-09 12:32 | 51.82353 | -3.50689 | 38100 ft | 484 kts | 273° |
| 2026-05-09 12:32 | 51.83516 | -3.61449 | 38105 ft | 487 kts | 278° |
| 2026-05-09 12:33 | 51.84881 | -3.72166 | 38107 ft | 487 kts | 279° |
| 2026-05-09 12:33 | 51.86275 | -3.82882 | 38108 ft | 487 kts | 279° |
| 2026-05-09 12:34 | 51.87654 | -3.93611 | 38117 ft | 487 kts | 279° |
| 2026-05-09 12:34 | 51.89017 | -4.04362 | 38110 ft | 488 kts | 279° |
| 2026-05-09 12:35 | 51.90369 | -4.15132 | 38111 ft | 488 kts | 279° |
| 2026-05-09 12:35 | 51.91712 | -4.25910 | 38112 ft | 488 kts | 279° |
| 2026-05-09 12:36 | 51.93045 | -4.36692 | 38125 ft | 488 kts | 278° |
| 2026-05-09 12:36 | 51.94369 | -4.47492 | 38123 ft | 489 kts | 278° |
| 2026-05-09 12:37 | 51.95685 | -4.58316 | 38137 ft | 490 kts | 278° |
| 2026-05-09 12:37 | 51.96985 | -4.69077 | 38131 ft | 489 kts | 278° |
| 2026-05-09 12:38 | 51.98279 | -4.79905 | 38137 ft | 489 kts | 278° |
| 2026-05-09 12:38 | 51.99565 | -4.90741 | 38161 ft | 489 kts | 278° |
| 2026-05-09 12:39 | 52.00843 | -5.01590 | 38155 ft | 490 kts | 278° |
| 2026-05-09 12:39 | 52.02108 | -5.12448 | 38154 ft | 490 kts | 278° |
| 2026-05-09 12:40 | 52.03714 | -5.23218 | 38147 ft | 492 kts | 284° |
| 2026-05-09 12:40 | 52.05791 | -5.33821 | 38158 ft | 493 kts | 284° |
| 2026-05-09 12:41 | 52.07932 | -5.44402 | 38158 ft | 493 kts | 285° |
| 2026-05-09 12:41 | 52.10071 | -5.54994 | 38168 ft | 493 kts | 284° |
| 2026-05-09 12:42 | 52.12190 | -5.65598 | 38171 ft | 493 kts | 284° |
| 2026-05-09 12:42 | 52.14293 | -5.76214 | 38168 ft | 493 kts | 285° |
| 2026-05-09 12:43 | 52.16384 | -5.86825 | 38166 ft | 491 kts | 285° |
| 2026-05-09 12:43 | 52.18527 | -5.97393 | 38165 ft | 491 kts | 285° |
| 2026-05-09 12:44 | 52.20687 | -6.07943 | 38184 ft | 490 kts | 284° |
| 2026-05-09 12:44 | 52.22812 | -6.18433 | 38177 ft | 490 kts | 285° |
| 2026-05-09 12:45 | 52.24933 | -6.29007 | 38186 ft | 490 kts | 285° |
| 2026-05-09 12:45 | 52.27046 | -6.39592 | 38190 ft | 490 kts | 285° |
| 2026-05-09 12:46 | 52.29146 | -6.50167 | 38182 ft | 489 kts | 284° |
| 2026-05-09 12:46 | 52.31552 | -6.62365 | 38204 ft | 488 kts | 285° |
| 2026-05-09 12:47 | 52.35678 | -6.83464 | 38176 ft | 484 kts | 285° |
| 2026-05-09 12:47 | 52.39082 | -7.01037 | 38193 ft | 482 kts | 285° |
| 2026-05-09 12:48 | 52.43068 | -7.21837 | 38180 ft | 481 kts | 284° |
| 2026-05-09 12:48 | 52.47034 | -7.42754 | 38208 ft | 480 kts | 285° |
| 2026-05-09 12:49 | 52.50985 | -7.63825 | 38215 ft | 478 kts | 285° |
| 2026-05-09 12:49 | 52.54843 | -7.84636 | 38219 ft | 475 kts | 285° |
| 2026-05-09 12:50 | 52.58632 | -8.05310 | 38206 ft | 475 kts | 285° |
| 2026-05-09 12:50 | 52.62386 | -8.26004 | 38227 ft | 473 kts | 284° |
| 2026-05-09 12:51 | 52.66107 | -8.46789 | 38239 ft | 473 kts | 284° |
| 2026-05-09 12:51 | 52.69792 | -8.67587 | 38244 ft | 474 kts | 285° |
| 2026-05-09 12:52 | 52.73469 | -8.88579 | 38243 ft | 476 kts | 285° |
| 2026-05-09 12:52 | 52.77096 | -9.09537 | 38242 ft | 476 kts | 285° |
| 2026-05-09 12:53 | 52.80711 | -9.30678 | 38265 ft | 477 kts | 285° |
| 2026-05-09 12:53 | 52.84286 | -9.51838 | 38264 ft | 479 kts | 285° |
| 2026-05-09 12:54 | 52.87829 | -9.73073 | 38274 ft | 477 kts | 285° |
| 2026-05-09 12:54 | 52.91342 | -9.94387 | 38298 ft | 481 kts | 285° |
| 2026-05-09 12:55 | 52.94813 | -10.15708 | 38314 ft | 479 kts | 285° |
| 2026-05-09 12:55 | 52.98251 | -10.37108 | 38319 ft | 480 kts | 285° |
| 2026-05-09 12:56 | 53.01650 | -10.58526 | 38305 ft | 479 kts | 285° |
| 2026-05-09 12:56 | 53.05014 | -10.80003 | 38328 ft | 480 kts | 285° |
| 2026-05-09 12:57 | 53.08334 | -11.01481 | 38342 ft | 482 kts | 285° |
| 2026-05-09 12:57 | 53.11622 | -11.23037 | 38330 ft | 479 kts | 285° |
| 2026-05-09 12:58 | 53.14868 | -11.44614 | 38347 ft | 480 kts | 285° |
| 2026-05-09 12:58 | 53.18070 | -11.66175 | 38348 ft | 480 kts | 285° |
| 2026-05-09 12:59 | 53.21240 | -11.87820 | 38355 ft | 481 kts | 286° |
| 2026-05-09 12:59 | 53.24378 | -12.09544 | 38376 ft | 483 kts | 285° |
| 2026-05-09 13:00 | 53.27458 | -12.31194 | 38377 ft | 481 kts | 285° |
| 2026-05-09 13:00 | 53.30526 | -12.53044 | 38388 ft | 484 kts | 285° |
| 2026-05-09 13:01 | 53.33554 | -12.74947 | 38392 ft | 484 kts | 286° |
| 2026-05-09 13:01 | 53.36553 | -12.96938 | 38395 ft | 483 kts | 285° |
| 2026-05-09 13:02 | 53.39511 | -13.18971 | 38405 ft | 485 kts | 285° |
| 2026-05-09 13:02 | 53.42432 | -13.41041 | 38416 ft | 485 kts | 285° |
| 2026-05-09 13:03 | 53.45311 | -13.63157 | 38422 ft | 485 kts | 285° |
| 2026-05-09 13:03 | 53.48144 | -13.85247 | 38427 ft | 483 kts | 285° |
| 2026-05-09 13:04 | 53.50038 | -14.07603 | 38433 ft | 488 kts | 274° |
| 2026-05-09 13:04 | 53.50120 | -14.30439 | 38442 ft | 489 kts | 273° |
| 2026-05-09 13:05 | 53.50110 | -14.53302 | 38450 ft | 489 kts | 273° |
| 2026-05-09 13:05 | 53.50084 | -14.76199 | 38447 ft | 491 kts | 273° |
| 2026-05-09 13:06 | 53.50012 | -14.99183 | 38450 ft | 492 kts | 273° |
| 2026-05-09 13:06 | 53.50387 | -15.22106 | 38456 ft | 492 kts | 276° |
| 2026-05-09 13:07 | 53.50869 | -15.45122 | 38460 ft | 494 kts | 276° |
| 2026-05-09 13:07 | 53.51239 | -15.68231 | 38465 ft | 495 kts | 275° |
| 2026-05-09 13:08 | 53.51567 | -15.91415 | 38471 ft | 498 kts | 276° |
| 2026-05-09 13:08 | 53.51852 | -16.14675 | 38474 ft | 498 kts | 275° |
| 2026-05-09 13:09 | 53.52092 | -16.37932 | 38478 ft | 498 kts | 275° |
| 2026-05-09 13:09 | 53.52287 | -16.61203 | 38488 ft | 498 kts | 275° |
| 2026-05-09 13:10 | 53.52437 | -16.84491 | 38493 ft | 499 kts | 275° |
| 2026-05-09 13:10 | 53.52542 | -17.07883 | 38493 ft | 501 kts | 275° |
| 2026-05-09 13:11 | 53.52600 | -17.31125 | 38505 ft | 500 kts | 275° |
| 2026-05-09 13:11 | 53.52614 | -17.54521 | 38508 ft | 500 kts | 276° |
| 2026-05-09 13:12 | 53.52583 | -17.77900 | 38514 ft | 500 kts | 275° |
| 2026-05-09 13:12 | 53.52506 | -18.01277 | 38519 ft | 500 kts | 276° |
| 2026-05-09 13:13 | 53.52384 | -18.24667 | 38522 ft | 500 kts | 275° |
| 2026-05-09 13:13 | 53.52215 | -18.48070 | 38530 ft | 501 kts | 276° |
| 2026-05-09 13:14 | 53.52000 | -18.71478 | 38532 ft | 501 kts | 275° |
| 2026-05-09 13:16 | 53.50685 | -19.65098 | 38548 ft | 503 kts | 275° |
| 2026-05-09 13:16 | 53.50239 | -19.88608 | 38560 ft | 504 kts | 275° |
| 2026-05-09 13:17 | 53.50475 | -20.11819 | 38559 ft | 499 kts | 281° |
| 2026-05-09 13:17 | 53.51416 | -20.35092 | 38562 ft | 499 kts | 281° |
| 2026-05-09 13:18 | 53.52308 | -20.58389 | 38571 ft | 500 kts | 281° |
| 2026-05-09 13:18 | 53.53150 | -20.81806 | 38572 ft | 503 kts | 282° |
| 2026-05-09 13:19 | 53.53945 | -21.05275 | 38575 ft | 503 kts | 281° |
| 2026-05-09 13:19 | 53.54698 | -21.28786 | 38581 ft | 504 kts | 281° |
| 2026-05-09 13:20 | 53.55406 | -21.52366 | 38586 ft | 505 kts | 281° |
| 2026-05-09 13:20 | 53.56067 | -21.75951 | 38587 ft | 505 kts | 281° |
| 2026-05-09 13:21 | 53.56682 | -21.99548 | 38590 ft | 505 kts | 281° |
| 2026-05-09 13:21 | 53.57250 | -22.23146 | 38598 ft | 505 kts | 281° |
| 2026-05-09 13:22 | 53.57774 | -22.46790 | 38609 ft | 506 kts | 281° |
| 2026-05-09 13:22 | 53.58251 | -22.70480 | 38605 ft | 506 kts | 280° |
| 2026-05-09 13:23 | 53.59240 | -23.29751 | 38616 ft | 507 kts | 280° |
| 2026-05-09 13:24 | 53.59554 | -23.53496 | 38623 ft | 508 kts | 280° |
| 2026-05-09 13:24 | 53.59821 | -23.77317 | 38623 ft | 509 kts | 280° |
| 2026-05-09 13:25 | 53.60040 | -24.01150 | 38611 ft | 509 kts | 279° |
| 2026-05-09 13:26 | 53.60282 | -24.36986 | 38634 ft | 510 kts | 279° |
| 2026-05-09 13:26 | 53.60384 | -24.60884 | 38627 ft | 510 kts | 279° |
| 2026-05-09 13:27 | 53.60438 | -24.84657 | 38637 ft | 511 kts | 279° |
| 2026-05-09 13:27 | 53.60444 | -25.08755 | 38639 ft | 511 kts | 278° |
| 2026-05-09 13:28 | 53.60402 | -25.32690 | 38642 ft | 510 kts | 278° |
| 2026-05-09 13:28 | 53.60314 | -25.56352 | 38645 ft | 509 kts | 278° |
| 2026-05-09 13:29 | 53.60179 | -25.80178 | 38648 ft | 509 kts | 278° |
| 2026-05-09 13:29 | 53.59996 | -26.03986 | 38647 ft | 508 kts | 278° |
| 2026-05-09 13:30 | 53.59766 | -26.27800 | 38653 ft | 509 kts | 277° |
| 2026-05-09 13:30 | 53.59489 | -26.51587 | 38646 ft | 508 kts | 277° |
| 2026-05-09 13:31 | 53.59164 | -26.75276 | 38655 ft | 505 kts | 277° |
| 2026-05-09 13:31 | 53.58797 | -26.98901 | 38655 ft | 504 kts | 277° |
| 2026-05-09 13:32 | 53.58383 | -27.22495 | 38657 ft | 504 kts | 276° |
| 2026-05-09 13:32 | 53.57674 | -27.57883 | 38657 ft | 505 kts | 276° |
| 2026-05-09 13:33 | 53.57142 | -27.81460 | 38662 ft | 502 kts | 276° |
| 2026-05-09 13:33 | 53.56568 | -28.04905 | 38654 ft | 501 kts | 275° |
| 2026-05-09 13:34 | 53.56058 | -28.24392 | 38674 ft | 502 kts | 275° |
| 2026-05-09 13:34 | 53.55399 | -28.47860 | 38670 ft | 502 kts | 275° |
| 2026-05-09 13:35 | 53.54694 | -28.71331 | 38667 ft | 503 kts | 275° |
| 2026-05-09 13:35 | 53.53943 | -28.94803 | 38643 ft | 503 kts | 274° |
| 2026-05-09 13:36 | 53.53146 | -29.18210 | 38657 ft | 501 kts | 274° |
| 2026-05-09 13:36 | 53.52309 | -29.41542 | 38666 ft | 500 kts | 273° |
| 2026-05-09 13:37 | 53.51427 | -29.64835 | 38669 ft | 500 kts | 273° |
| 2026-05-09 13:37 | 53.50498 | -29.88120 | 38669 ft | 499 kts | 272° |
| 2026-05-09 13:38 | 53.49434 | -30.11363 | 38673 ft | 500 kts | 271° |
| 2026-05-09 13:38 | 53.48014 | -30.34540 | 38664 ft | 496 kts | 270° |
| 2026-05-09 13:39 | 53.46620 | -30.57542 | 38667 ft | 496 kts | 270° |
| 2026-05-09 13:39 | 53.45191 | -30.80547 | 38664 ft | 496 kts | 270° |
| 2026-05-09 13:40 | 53.43715 | -31.03523 | 38668 ft | 495 kts | 269° |
| 2026-05-09 13:40 | 53.42196 | -31.26479 | 38649 ft | 495 kts | 269° |
| 2026-05-09 13:41 | 53.40635 | -31.49396 | 38650 ft | 494 kts | 268° |
| 2026-05-09 13:41 | 53.39035 | -31.72201 | 38654 ft | 492 kts | 268° |
| 2026-05-09 13:42 | 53.37396 | -31.94949 | 38630 ft | 492 kts | 268° |
| 2026-05-09 13:42 | 53.35714 | -32.17675 | 38651 ft | 492 kts | 267° |
| 2026-05-09 13:43 | 53.34002 | -32.40217 | 38643 ft | 492 kts | 267° |
| 2026-05-09 13:43 | 53.32235 | -32.62896 | 38637 ft | 491 kts | 266° |
| 2026-05-09 13:44 | 53.30429 | -32.85489 | 38640 ft | 487 kts | 266° |
| 2026-05-09 13:44 | 53.28595 | -33.07899 | 38638 ft | 486 kts | 266° |
| 2026-05-09 13:45 | 53.26722 | -33.30269 | 38629 ft | 486 kts | 266° |
| 2026-05-09 13:45 | 53.24805 | -33.52638 | 38627 ft | 486 kts | 265° |
| 2026-05-09 13:46 | 53.22847 | -33.74970 | 38624 ft | 486 kts | 265° |
| 2026-05-09 13:46 | 53.20847 | -33.97288 | 38616 ft | 486 kts | 265° |
| 2026-05-09 13:47 | 53.18812 | -34.19500 | 38616 ft | 482 kts | 264° |
| 2026-05-09 13:47 | 53.16756 | -34.41484 | 38604 ft | 479 kts | 264° |
| 2026-05-09 13:48 | 53.14667 | -34.63381 | 38600 ft | 479 kts | 264° |
| 2026-05-09 13:48 | 53.12533 | -34.85297 | 38591 ft | 479 kts | 263° |
| 2026-05-09 13:49 | 53.10364 | -35.07139 | 38586 ft | 478 kts | 263° |
| 2026-05-09 13:49 | 53.08155 | -35.28961 | 38576 ft | 477 kts | 262° |
| 2026-05-09 13:50 | 53.05938 | -35.50447 | 38570 ft | 469 kts | 262° |
| 2026-05-09 13:50 | 53.03697 | -35.71773 | 38568 ft | 468 kts | 262° |
| 2026-05-09 13:51 | 53.01422 | -35.93039 | 38559 ft | 466 kts | 262° |
| 2026-05-09 13:51 | 52.99120 | -36.14210 | 38554 ft | 466 kts | 261° |
| 2026-05-09 13:52 | 52.96775 | -36.35378 | 38543 ft | 466 kts | 261° |
| 2026-05-09 13:52 | 52.94400 | -36.56475 | 38536 ft | 465 kts | 260° |
| 2026-05-09 13:53 | 52.92004 | -36.77397 | 38530 ft | 465 kts | 260° |
| 2026-05-09 13:53 | 52.89554 | -36.98434 | 38521 ft | 464 kts | 260° |
| 2026-05-09 13:54 | 52.87074 | -37.19393 | 38514 ft | 464 kts | 259° |
| 2026-05-09 13:54 | 52.84558 | -37.40325 | 38506 ft | 463 kts | 259° |
| 2026-05-09 13:55 | 52.82014 | -37.61159 | 38503 ft | 462 kts | 259° |
| 2026-05-09 13:55 | 52.79439 | -37.81933 | 38487 ft | 460 kts | 258° |
| 2026-05-09 13:56 | 52.76837 | -38.02609 | 38477 ft | 458 kts | 257° |
| 2026-05-09 13:56 | 52.74205 | -38.23197 | 38478 ft | 459 kts | 257° |
| 2026-05-09 13:57 | 52.71544 | -38.43722 | 38460 ft | 456 kts | 257° |
| 2026-05-09 13:57 | 52.68854 | -38.64179 | 38449 ft | 457 kts | 257° |
| 2026-05-09 13:58 | 52.66143 | -38.84497 | 38438 ft | 457 kts | 257° |
| 2026-05-09 13:58 | 52.63385 | -39.04888 | 38434 ft | 454 kts | 255° |
| 2026-05-09 13:59 | 52.60608 | -39.25107 | 38415 ft | 453 kts | 256° |
| 2026-05-09 13:59 | 52.57799 | -39.45309 | 38413 ft | 453 kts | 255° |
| 2026-05-09 14:00 | 52.55907 | -39.58779 | 38413 ft | 452 kts | 255° |
| 2026-05-09 14:00 | 52.52098 | -39.85502 | 38390 ft | 452 kts | 255° |
| 2026-05-09 14:01 | 52.49191 | -40.05540 | 38380 ft | 451 kts | 254° |
| 2026-05-09 14:01 | 52.46163 | -40.25420 | 38362 ft | 448 kts | 253° |
| 2026-05-09 14:02 | 52.43124 | -40.45184 | 38348 ft | 447 kts | 253° |
| 2026-05-09 14:02 | 52.40060 | -40.64910 | 38340 ft | 446 kts | 253° |
| 2026-05-09 14:03 | 52.36950 | -40.84691 | 38603 ft | 453 kts | 253° |
| 2026-05-09 14:03 | 52.35368 | -40.94667 | 39091 ft | 451 kts | 253° |
| 2026-05-09 14:03 | 52.33782 | -41.04617 | 39428 ft | 452 kts | 252° |
| 2026-05-09 14:04 | 52.32195 | -41.14508 | 39873 ft | 450 kts | 252° |
| 2026-05-09 14:04 | 52.30598 | -41.24399 | 40251 ft | 449 kts | 252° |
| 2026-05-09 14:04 | 52.27393 | -41.44057 | 40303 ft | 452 kts | 251° |
| 2026-05-09 14:05 | 52.24148 | -41.63756 | 40279 ft | 448 kts | 251° |
| 2026-05-09 14:05 | 52.20876 | -41.83371 | 40259 ft | 448 kts | 251° |
| 2026-05-09 14:06 | 52.17575 | -42.02950 | 40252 ft | 448 kts | 251° |
| 2026-05-09 14:06 | 52.14242 | -42.22496 | 40232 ft | 448 kts | 251° |
| 2026-05-09 14:07 | 52.10872 | -42.42037 | 40223 ft | 448 kts | 251° |
| 2026-05-09 14:07 | 52.07471 | -42.61547 | 40214 ft | 449 kts | 250° |
| 2026-05-09 14:08 | 52.04025 | -42.81095 | 40194 ft | 450 kts | 250° |
| 2026-05-09 14:08 | 52.00545 | -43.00624 | 40181 ft | 450 kts | 249° |
| 2026-05-09 14:09 | 51.97034 | -43.20115 | 40162 ft | 450 kts | 249° |
| 2026-05-09 14:09 | 51.93489 | -43.39585 | 40162 ft | 450 kts | 249° |
| 2026-05-09 14:10 | 51.88113 | -43.68726 | 40132 ft | 450 kts | 249° |
| 2026-05-09 14:11 | 51.84491 | -43.88107 | 40122 ft | 449 kts | 248° |
| 2026-05-09 14:11 | 51.80857 | -44.07353 | 40100 ft | 447 kts | 248° |
| 2026-05-09 14:12 | 51.77222 | -44.26396 | 40088 ft | 446 kts | 248° |
| 2026-05-09 14:12 | 51.73535 | -44.45526 | 40083 ft | 446 kts | 247° |
| 2026-05-09 14:13 | 51.69825 | -44.64590 | 40064 ft | 445 kts | 246° |
| 2026-05-09 14:15 | 51.54701 | -45.40399 | 40019 ft | 445 kts | 246° |
| 2026-05-09 14:15 | 51.50846 | -45.59262 | 39999 ft | 445 kts | 245° |
| 2026-05-09 14:16 | 51.46956 | -45.78112 | 39991 ft | 445 kts | 245° |
| 2026-05-09 14:16 | 51.43043 | -45.96902 | 39977 ft | 444 kts | 245° |
| 2026-05-09 14:17 | 51.39094 | -46.15683 | 39980 ft | 445 kts | 245° |
| 2026-05-09 14:17 | 51.35117 | -46.34425 | 39961 ft | 444 kts | 244° |
| 2026-05-09 14:18 | 51.31125 | -46.53075 | 39947 ft | 440 kts | 244° |
| 2026-05-09 14:18 | 51.27141 | -46.71508 | 39933 ft | 438 kts | 244° |
| 2026-05-09 14:19 | 51.23157 | -46.89771 | 39916 ft | 438 kts | 244° |
| 2026-05-09 14:19 | 51.19158 | -47.07975 | 39905 ft | 432 kts | 243° |
| 2026-05-09 14:20 | 51.15150 | -47.26012 | 39933 ft | 432 kts | 243° |
| 2026-05-09 14:20 | 51.11116 | -47.44028 | 39876 ft | 431 kts | 242° |
| 2026-05-09 14:21 | 51.05040 | -47.70886 | 39872 ft | 430 kts | 242° |
| 2026-05-09 14:21 | 51.00960 | -47.88732 | 39867 ft | 430 kts | 242° |
| 2026-05-09 14:22 | 50.96848 | -48.06564 | 39859 ft | 430 kts | 242° |
| 2026-05-09 14:22 | 50.92709 | -48.24363 | 39845 ft | 430 kts | 242° |
| 2026-05-09 14:23 | 50.89225 | -48.39235 | 39846 ft | 430 kts | 241° |
| 2026-05-09 14:23 | 50.85069 | -48.56840 | 39842 ft | 429 kts | 241° |
| 2026-05-09 14:24 | 50.80862 | -48.74515 | 39831 ft | 429 kts | 241° |
| 2026-05-09 14:24 | 50.76624 | -48.92176 | 39826 ft | 430 kts | 240° |
| 2026-05-09 14:25 | 50.72356 | -49.09822 | 39826 ft | 430 kts | 240° |
| 2026-05-09 14:25 | 50.68060 | -49.27440 | 39827 ft | 430 kts | 240° |
| 2026-05-09 14:26 | 50.63736 | -49.45030 | 39832 ft | 431 kts | 240° |
| 2026-05-09 14:26 | 50.59377 | -49.62627 | 39819 ft | 432 kts | 240° |
| 2026-05-09 14:27 | 50.54985 | -49.80219 | 39818 ft | 432 kts | 239° |
| 2026-05-09 14:27 | 50.50568 | -49.97765 | 39812 ft | 432 kts | 239° |
| 2026-05-09 14:28 | 50.46277 | -50.15408 | 39826 ft | 433 kts | 240° |
| 2026-05-09 14:28 | 50.42029 | -50.33131 | 39812 ft | 434 kts | 240° |
| 2026-05-09 14:29 | 50.37724 | -50.50813 | 39847 ft | 434 kts | 240° |
| 2026-05-09 14:29 | 50.33355 | -50.68590 | 39821 ft | 440 kts | 240° |
| 2026-05-09 14:30 | 50.28932 | -50.86479 | 39821 ft | 441 kts | 240° |
| 2026-05-09 14:30 | 50.24477 | -51.04341 | 39857 ft | 441 kts | 240° |
| 2026-05-09 14:31 | 50.19985 | -51.22198 | 39828 ft | 442 kts | 240° |
| 2026-05-09 14:31 | 50.15460 | -51.40058 | 39831 ft | 442 kts | 240° |
| 2026-05-09 14:32 | 50.10950 | -51.57717 | 39837 ft | 440 kts | 240° |
| 2026-05-09 14:32 | 50.06390 | -51.75420 | 39845 ft | 440 kts | 240° |
| 2026-05-09 14:33 | 50.01813 | -51.93058 | 39875 ft | 440 kts | 240° |
| 2026-05-09 14:33 | 49.98416 | -52.11583 | 39862 ft | 451 kts | 250° |
| 2026-05-09 14:34 | 49.95886 | -52.30681 | 39873 ft | 451 kts | 250° |
| 2026-05-09 14:34 | 49.93293 | -52.49785 | 39897 ft | 454 kts | 250° |
| 2026-05-09 14:35 | 49.90633 | -52.69042 | 39885 ft | 457 kts | 250° |
| 2026-05-09 14:35 | 49.87945 | -52.88278 | 39887 ft | 456 kts | 250° |
| 2026-05-09 14:36 | 49.85225 | -53.07477 | 39895 ft | 456 kts | 250° |
| 2026-05-09 14:36 | 49.82459 | -53.26741 | 39903 ft | 459 kts | 250° |
| 2026-05-09 14:37 | 49.79659 | -53.46027 | 39912 ft | 459 kts | 250° |
| 2026-05-09 14:37 | 49.76821 | -53.65312 | 39926 ft | 460 kts | 250° |
| 2026-05-09 14:38 | 49.73948 | -53.84602 | 39937 ft | 461 kts | 250° |
| 2026-05-09 14:38 | 49.71028 | -54.03956 | 39939 ft | 463 kts | 250° |
| 2026-05-09 14:39 | 49.68075 | -54.23309 | 39944 ft | 463 kts | 250° |
| 2026-05-09 14:39 | 49.65089 | -54.42638 | 39936 ft | 463 kts | 250° |
| 2026-05-09 14:40 | 49.62069 | -54.61950 | 39943 ft | 464 kts | 250° |
| 2026-05-09 14:40 | 49.59033 | -54.81139 | 39925 ft | 464 kts | 250° |
| 2026-05-09 14:41 | 49.55947 | -55.00418 | 39930 ft | 463 kts | 250° |
| 2026-05-09 14:41 | 49.52830 | -55.19667 | 39942 ft | 463 kts | 250° |
| 2026-05-09 14:42 | 49.49675 | -55.38918 | 39935 ft | 464 kts | 250° |
| 2026-05-09 14:42 | 49.46487 | -55.58164 | 39937 ft | 464 kts | 250° |
| 2026-05-09 14:43 | 49.43269 | -55.77374 | 39934 ft | 464 kts | 250° |
| 2026-05-09 14:43 | 49.40020 | -55.96548 | 39954 ft | 464 kts | 250° |
| 2026-05-09 14:44 | 49.36735 | -56.15717 | 39931 ft | 464 kts | 250° |
| 2026-05-09 14:44 | 49.33426 | -56.34827 | 39931 ft | 463 kts | 250° |
| 2026-05-09 14:45 | 49.30087 | -56.53902 | 39928 ft | 463 kts | 250° |
| 2026-05-09 14:45 | 49.26719 | -56.72934 | 39927 ft | 463 kts | 250° |
| 2026-05-09 14:46 | 49.23322 | -56.91925 | 39932 ft | 462 kts | 250° |
| 2026-05-09 14:46 | 49.19897 | -57.10879 | 39933 ft | 462 kts | 250° |
| 2026-05-09 14:47 | 49.16441 | -57.29800 | 39949 ft | 462 kts | 250° |
| 2026-05-09 14:47 | 49.12952 | -57.48709 | 39941 ft | 463 kts | 250° |
| 2026-05-09 14:48 | 49.09427 | -57.67621 | 39949 ft | 463 kts | 250° |
| 2026-05-09 14:48 | 49.05872 | -57.86498 | 39958 ft | 463 kts | 250° |
| 2026-05-09 14:49 | 49.02313 | -58.05210 | 39974 ft | 463 kts | 250° |
| 2026-05-09 14:49 | 48.98697 | -58.24034 | 39981 ft | 463 kts | 250° |
| 2026-05-09 14:50 | 48.95050 | -58.42837 | 39985 ft | 463 kts | 250° |
| 2026-05-09 14:50 | 48.91374 | -58.61598 | 39996 ft | 463 kts | 250° |
| 2026-05-09 14:51 | 48.87664 | -58.80349 | 39997 ft | 464 kts | 250° |
| 2026-05-09 14:51 | 48.83912 | -58.99134 | 39996 ft | 465 kts | 250° |
| 2026-05-09 14:52 | 48.80134 | -59.17871 | 39998 ft | 465 kts | 250° |
| 2026-05-09 14:52 | 48.76322 | -59.36591 | 40028 ft | 464 kts | 250° |
| 2026-05-09 14:53 | 48.72488 | -59.55247 | 39996 ft | 464 kts | 250° |
| 2026-05-09 14:53 | 48.68627 | -59.73856 | 40001 ft | 463 kts | 250° |
| 2026-05-09 14:54 | 48.64732 | -59.92459 | 39998 ft | 464 kts | 250° |
| 2026-05-09 14:54 | 48.60809 | -60.11025 | 40001 ft | 463 kts | 250° |
| 2026-05-09 14:55 | 48.56859 | -60.29545 | 39999 ft | 463 kts | 250° |
| 2026-05-09 14:55 | 48.52892 | -60.47980 | 40002 ft | 461 kts | 250° |
| 2026-05-09 14:56 | 48.48899 | -60.66370 | 40000 ft | 461 kts | 250° |
| 2026-05-09 14:56 | 48.44883 | -60.84702 | 39997 ft | 460 kts | 250° |
| 2026-05-09 14:57 | 48.40840 | -61.03000 | 40018 ft | 460 kts | 249° |
| 2026-05-09 14:57 | 48.36770 | -61.21256 | 40013 ft | 460 kts | 249° |
| 2026-05-09 14:58 | 48.32672 | -61.39476 | 40013 ft | 459 kts | 249° |
| 2026-05-09 14:58 | 48.28584 | -61.57503 | 40012 ft | 459 kts | 249° |
| 2026-05-09 14:59 | 48.24438 | -61.75628 | 40015 ft | 459 kts | 249° |
| 2026-05-09 14:59 | 48.20268 | -61.93704 | 40015 ft | 458 kts | 249° |
| 2026-05-09 15:00 | 48.16078 | -62.11721 | 40020 ft | 458 kts | 249° |
| 2026-05-09 15:00 | 48.11851 | -62.29735 | 40021 ft | 458 kts | 249° |
| 2026-05-09 15:01 | 48.05471 | -62.56656 | 40020 ft | 458 kts | 249° |
| 2026-05-09 15:02 | 48.01187 | -62.74549 | 40021 ft | 457 kts | 249° |
| 2026-05-09 15:02 | 47.96884 | -62.92373 | 40020 ft | 456 kts | 249° |
| 2026-05-09 15:03 | 47.92556 | -63.10157 | 40020 ft | 456 kts | 249° |
| 2026-05-09 15:03 | 47.88229 | -63.27797 | 40021 ft | 456 kts | 249° |
| 2026-05-09 15:04 | 47.83848 | -63.45519 | 40018 ft | 456 kts | 249° |
| 2026-05-09 15:06 | 47.66073 | -64.16017 | 40006 ft | 455 kts | 248° |
| 2026-05-09 15:06 | 47.61564 | -64.33558 | 40015 ft | 455 kts | 248° |
| 2026-05-09 15:07 | 47.57030 | -64.51064 | 40012 ft | 455 kts | 248° |
| 2026-05-09 15:07 | 47.52467 | -64.68544 | 40012 ft | 455 kts | 248° |
| 2026-05-09 15:08 | 47.47881 | -64.85987 | 40012 ft | 455 kts | 248° |
| 2026-05-09 15:08 | 47.40960 | -65.12060 | 40003 ft | 454 kts | 248° |
| 2026-05-09 15:10 | 47.22326 | -65.80857 | 39999 ft | 451 kts | 248° |
| 2026-05-09 15:11 | 47.17611 | -65.97951 | 39999 ft | 451 kts | 248° |
| 2026-05-09 15:11 | 47.12890 | -66.14948 | 39992 ft | 449 kts | 248° |
| 2026-05-09 15:12 | 47.08148 | -66.31898 | 40201 ft | 448 kts | 248° |
| 2026-05-09 15:12 | 47.05769 | -66.40358 | 40564 ft | 449 kts | 248° |
| 2026-05-09 15:12 | 47.03384 | -66.48810 | 40974 ft | 447 kts | 248° |
| 2026-05-09 15:13 | 47.01774 | -66.54497 | 41225 ft | 447 kts | 248° |
| 2026-05-09 15:13 | 46.99386 | -66.62911 | 41512 ft | 448 kts | 247° |
| 2026-05-09 15:13 | 46.97017 | -66.71229 | 41812 ft | 448 kts | 247° |
| 2026-05-09 15:13 | 46.94610 | -66.79650 | 42096 ft | 449 kts | 247° |
| 2026-05-09 15:14 | 46.92930 | -66.85509 | 42275 ft | 449 kts | 247° |
| 2026-05-09 15:14 | 46.91720 | -66.89720 | 42410 ft | 449 kts | 247° |
| 2026-05-09 15:14 | 46.90510 | -66.93927 | 42607 ft | 448 kts | 247° |
| 2026-05-09 15:14 | 46.89274 | -66.98108 | 42731 ft | 449 kts | 244° |
| 2026-05-09 15:15 | 46.87761 | -67.02098 | 42834 ft | 449 kts | 237° |
| 2026-05-09 15:15 | 46.85882 | -67.05739 | 42941 ft | 451 kts | 229° |
| 2026-05-09 15:15 | 46.81146 | -67.11816 | 43002 ft | 457 kts | 219° |
| 2026-05-09 15:16 | 46.76056 | -67.17453 | 43005 ft | 462 kts | 219° |
| 2026-05-09 15:16 | 46.70911 | -67.23146 | 43005 ft | 466 kts | 219° |
| 2026-05-09 15:17 | 46.65747 | -67.28858 | 43002 ft | 466 kts | 219° |
| 2026-05-09 15:17 | 46.60581 | -67.34562 | 43006 ft | 466 kts | 219° |
| 2026-05-09 15:18 | 46.55410 | -67.40260 | 43001 ft | 466 kts | 219° |
| 2026-05-09 15:18 | 46.50241 | -67.45941 | 43014 ft | 466 kts | 219° |
| 2026-05-09 15:19 | 46.45066 | -67.51616 | 43012 ft | 466 kts | 219° |
| 2026-05-09 15:19 | 46.39888 | -67.57280 | 43011 ft | 466 kts | 219° |
| 2026-05-09 15:20 | 46.32158 | -67.65711 | 43007 ft | 466 kts | 219° |
| 2026-05-09 15:21 | 46.26975 | -67.71346 | 43008 ft | 466 kts | 219° |
| 2026-05-09 15:21 | 46.21763 | -67.76999 | 43001 ft | 466 kts | 219° |
| 2026-05-09 15:22 | 46.16616 | -67.82568 | 43007 ft | 465 kts | 219° |
| 2026-05-09 15:22 | 46.11438 | -67.88158 | 43008 ft | 465 kts | 219° |
| 2026-05-09 15:23 | 46.06260 | -67.93734 | 43010 ft | 465 kts | 219° |
| 2026-05-09 15:23 | 46.01081 | -67.99297 | 43011 ft | 464 kts | 219° |
| 2026-05-09 15:24 | 45.95909 | -68.04840 | 43017 ft | 464 kts | 219° |
| 2026-05-09 15:24 | 45.90729 | -68.10378 | 43024 ft | 464 kts | 219° |
| 2026-05-09 15:25 | 45.85551 | -68.15901 | 43023 ft | 463 kts | 219° |
| 2026-05-09 15:25 | 45.80381 | -68.21402 | 43032 ft | 462 kts | 219° |
| 2026-05-09 15:26 | 45.72629 | -68.29627 | 43040 ft | 462 kts | 219° |
| 2026-05-09 15:26 | 45.67427 | -68.35130 | 43042 ft | 462 kts | 219° |
| 2026-05-09 15:27 | 45.62259 | -68.40584 | 43048 ft | 461 kts | 219° |
| 2026-05-09 15:27 | 45.57062 | -68.46056 | 43042 ft | 461 kts | 219° |
| 2026-05-09 15:28 | 45.51894 | -68.51484 | 43030 ft | 461 kts | 219° |
| 2026-05-09 15:28 | 45.46731 | -68.56894 | 43041 ft | 461 kts | 219° |
| 2026-05-09 15:29 | 45.41565 | -68.62296 | 43041 ft | 461 kts | 219° |
| 2026-05-09 15:29 | 45.36396 | -68.67688 | 43042 ft | 461 kts | 219° |
| 2026-05-09 15:30 | 45.31226 | -68.73067 | 43043 ft | 460 kts | 219° |
| 2026-05-09 15:30 | 45.26058 | -68.78432 | 43045 ft | 460 kts | 219° |
| 2026-05-09 15:31 | 45.20890 | -68.83787 | 43036 ft | 460 kts | 219° |
| 2026-05-09 15:31 | 45.15713 | -68.89137 | 43034 ft | 460 kts | 219° |
| 2026-05-09 15:32 | 45.10548 | -68.94462 | 43035 ft | 459 kts | 219° |
| 2026-05-09 15:32 | 45.02108 | -69.03139 | 43034 ft | 459 kts | 219° |
| 2026-05-09 15:33 | 44.91848 | -69.13643 | 43028 ft | 458 kts | 219° |
| 2026-05-09 15:33 | 44.81459 | -69.24231 | 43026 ft | 458 kts | 219° |
| 2026-05-09 15:34 | 44.71194 | -69.34645 | 43030 ft | 458 kts | 219° |
| 2026-05-09 15:34 | 44.60856 | -69.45086 | 43018 ft | 457 kts | 219° |
| 2026-05-09 15:35 | 44.50524 | -69.55475 | 43007 ft | 457 kts | 219° |
| 2026-05-09 15:35 | 44.40222 | -69.65788 | 43035 ft | 455 kts | 219° |
| 2026-05-09 15:36 | 44.29930 | -69.76046 | 43033 ft | 453 kts | 219° |
| 2026-05-09 15:36 | 44.19695 | -69.86202 | 43052 ft | 452 kts | 219° |
| 2026-05-09 15:37 | 44.05862 | -69.99858 | 43066 ft | 451 kts | 219° |
| 2026-05-09 15:37 | 43.85385 | -70.19928 | 43062 ft | 450 kts | 219° |
| 2026-05-09 15:38 | 43.64899 | -70.39835 | 43040 ft | 450 kts | 219° |
| 2026-05-09 15:38 | 43.44386 | -70.59558 | 43052 ft | 450 kts | 217° |
| 2026-05-09 15:39 | 43.32663 | -70.66258 | 43040 ft | 459 kts | 205° |
| 2026-05-09 15:39 | 43.20626 | -70.72146 | 43047 ft | 459 kts | 205° |
| 2026-05-09 15:39 | 42.96547 | -70.83897 | 43046 ft | 459 kts | 205° |
| 2026-05-09 15:40 | 42.72488 | -70.95546 | 43063 ft | 458 kts | 205° |
| 2026-05-09 15:40 | 42.48467 | -71.07073 | 43039 ft | 458 kts | 205° |
| 2026-05-09 15:41 | 42.24453 | -71.18505 | 42996 ft | 457 kts | 205° |
| 2026-05-09 15:41 | 42.00482 | -71.29827 | 43016 ft | 456 kts | 205° |
| 2026-05-09 15:42 | 41.77354 | -71.40664 | 43024 ft | 456 kts | 205° |
| 2026-05-09 15:42 | 41.71619 | -71.44159 | 43031 ft | 445 kts | 218° |
| 2026-05-09 15:43 | 41.66794 | -71.49204 | 43025 ft | 439 kts | 225° |
| 2026-05-09 15:43 | 41.62126 | -71.54452 | 42734 ft | 437 kts | 224° |
| 2026-05-09 15:44 | 41.59826 | -71.57024 | 42067 ft | 436 kts | 225° |
| 2026-05-09 15:44 | 41.57467 | -71.59658 | 41355 ft | 436 kts | 225° |
| 2026-05-09 15:44 | 41.55167 | -71.62219 | 40717 ft | 436 kts | 225° |
| 2026-05-09 15:44 | 41.52851 | -71.64792 | 39904 ft | 429 kts | 225° |
| 2026-05-09 15:45 | 41.50565 | -71.67328 | 38843 ft | 426 kts | 225° |
| 2026-05-09 15:45 | 41.48292 | -71.69851 | 37489 ft | 425 kts | 225° |
| 2026-05-09 15:45 | 41.45999 | -71.72398 | 36443 ft | 430 kts | 225° |
| 2026-05-09 15:45 | 41.43705 | -71.74939 | 35763 ft | 428 kts | 225° |
| 2026-05-09 15:46 | 41.41422 | -71.77462 | 35215 ft | 424 kts | 225° |
| 2026-05-09 15:46 | 41.39169 | -71.79950 | 34713 ft | 419 kts | 225° |
| 2026-05-09 15:46 | 41.36937 | -71.82412 | 34215 ft | 414 kts | 225° |
| 2026-05-09 15:46 | 41.34732 | -71.84844 | 33665 ft | 410 kts | 225° |
| 2026-05-09 15:47 | 41.32551 | -71.87247 | 33163 ft | 404 kts | 225° |
| 2026-05-09 15:47 | 41.30398 | -71.89617 | 32662 ft | 399 kts | 225° |
| 2026-05-09 15:47 | 41.28273 | -71.91955 | 32154 ft | 394 kts | 225° |
| 2026-05-09 15:47 | 41.26177 | -71.94265 | 31662 ft | 390 kts | 225° |
| 2026-05-09 15:48 | 41.24097 | -71.96547 | 31153 ft | 385 kts | 225° |
| 2026-05-09 15:48 | 41.22039 | -71.98803 | 30634 ft | 382 kts | 226° |
| 2026-05-09 15:48 | 41.20005 | -72.01031 | 29454 ft | 378 kts | 226° |
| 2026-05-09 15:48 | 41.17968 | -72.03270 | 27880 ft | 382 kts | 225° |
| 2026-05-09 15:49 | 41.15908 | -72.05529 | 26450 ft | 385 kts | 224° |
| 2026-05-09 15:49 | 41.13849 | -72.07780 | 25244 ft | 382 kts | 224° |
| 2026-05-09 15:49 | 41.11847 | -72.10043 | 24204 ft | 373 kts | 227° |
| 2026-05-09 15:49 | 41.10218 | -72.12594 | 23657 ft | 356 kts | 239° |
| 2026-05-09 15:50 | 41.09103 | -72.15470 | 23153 ft | 348 kts | 250° |
| 2026-05-09 15:50 | 41.08310 | -72.18465 | 22644 ft | 342 kts | 252° |
| 2026-05-09 15:50 | 41.07580 | -72.21446 | 22134 ft | 337 kts | 252° |
| 2026-05-09 15:50 | 41.06866 | -72.24371 | 21658 ft | 332 kts | 252° |
| 2026-05-09 15:51 | 41.06157 | -72.27258 | 21187 ft | 327 kts | 252° |
| 2026-05-09 15:51 | 41.05454 | -72.30103 | 20705 ft | 323 kts | 252° |
| 2026-05-09 15:51 | 41.04756 | -72.32920 | 20232 ft | 320 kts | 252° |
| 2026-05-09 15:51 | 41.04063 | -72.35710 | 19761 ft | 317 kts | 252° |
| 2026-05-09 15:52 | 41.02690 | -72.41220 | 18821 ft | 313 kts | 252° |
| 2026-05-09 15:52 | 41.02009 | -72.43945 | 18354 ft | 311 kts | 252° |
| 2026-05-09 15:52 | 41.01332 | -72.46655 | 17839 ft | 309 kts | 252° |
| 2026-05-09 15:53 | 41.00660 | -72.49345 | 17348 ft | 307 kts | 252° |
| 2026-05-09 15:53 | 40.99992 | -72.52011 | 16930 ft | 303 kts | 251° |
| 2026-05-09 15:53 | 40.99331 | -72.54647 | 16472 ft | 301 kts | 251° |
| 2026-05-09 15:53 | 40.98673 | -72.57267 | 16021 ft | 299 kts | 251° |
| 2026-05-09 15:54 | 40.98018 | -72.59874 | 15567 ft | 298 kts | 250° |
| 2026-05-09 15:54 | 40.97364 | -72.62472 | 15097 ft | 297 kts | 250° |
| 2026-05-09 15:54 | 40.96720 | -72.65030 | 14657 ft | 297 kts | 249° |
| 2026-05-09 15:54 | 40.96068 | -72.67613 | 14204 ft | 296 kts | 249° |
| 2026-05-09 15:55 | 40.95418 | -72.70189 | 13725 ft | 295 kts | 249° |
| 2026-05-09 15:55 | 40.94769 | -72.72752 | 13245 ft | 293 kts | 249° |
| 2026-05-09 15:55 | 40.94126 | -72.75296 | 12787 ft | 290 kts | 248° |
| 2026-05-09 15:55 | 40.93458 | -72.77797 | 12317 ft | 286 kts | 244° |
| 2026-05-09 15:56 | 40.92438 | -72.80056 | 12060 ft | 289 kts | 229° |
| 2026-05-09 15:56 | 40.90948 | -72.81858 | 12025 ft | 292 kts | 218° |
| 2026-05-09 15:56 | 40.89309 | -72.83450 | 12013 ft | 292 kts | 217° |
| 2026-05-09 15:56 | 40.88198 | -72.84504 | 11844 ft | 289 kts | 216° |
| 2026-05-09 15:57 | 40.86565 | -72.86053 | 11234 ft | 289 kts | 216° |
| 2026-05-09 15:57 | 40.84987 | -72.87555 | 10984 ft | 277 kts | 216° |
| 2026-05-09 15:57 | 40.83490 | -72.88984 | 10731 ft | 254 kts | 216° |
| 2026-05-09 15:57 | 40.82092 | -72.90320 | 10485 ft | 248 kts | 216° |
| 2026-05-09 15:58 | 40.80694 | -72.91657 | 10255 ft | 248 kts | 216° |
| 2026-05-09 15:58 | 40.79298 | -72.92991 | 10028 ft | 247 kts | 216° |
| 2026-05-09 15:58 | 40.77911 | -72.94318 | 9741 ft | 246 kts | 216° |
| 2026-05-09 15:58 | 40.76528 | -72.95640 | 9540 ft | 246 kts | 215° |
| 2026-05-09 15:59 | 40.75146 | -72.96959 | 9320 ft | 244 kts | 215° |
| 2026-05-09 15:59 | 40.73773 | -72.98270 | 9110 ft | 244 kts | 215° |
| 2026-05-09 15:59 | 40.72416 | -72.99603 | 8905 ft | 243 kts | 219° |
| 2026-05-09 15:59 | 40.71426 | -73.01409 | 8564 ft | 248 kts | 244° |
| 2026-05-09 16:00 | 40.71211 | -73.03693 | 8054 ft | 261 kts | 271° |
| 2026-05-09 16:00 | 40.71517 | -73.05242 | 7786 ft | 266 kts | 283° |
| 2026-05-09 16:00 | 40.72472 | -73.08271 | 7282 ft | 268 kts | 287° |
| 2026-05-09 16:00 | 40.73220 | -73.10509 | 6898 ft | 266 kts | 287° |
| 2026-05-09 16:01 | 40.73969 | -73.12735 | 6541 ft | 265 kts | 287° |
| 2026-05-09 16:01 | 40.74727 | -73.14954 | 6164 ft | 265 kts | 287° |
| 2026-05-09 16:01 | 40.75480 | -73.17160 | 5783 ft | 263 kts | 287° |
| 2026-05-09 16:01 | 40.76226 | -73.19351 | 5462 ft | 261 kts | 287° |
| 2026-05-09 16:02 | 40.76967 | -73.21531 | 5232 ft | 259 kts | 287° |
| 2026-05-09 16:02 | 40.78429 | -73.25855 | 4995 ft | 258 kts | 287° |
| 2026-05-09 16:02 | 40.79158 | -73.28012 | 5002 ft | 257 kts | 287° |
| 2026-05-09 16:03 | 40.79884 | -73.30165 | 5022 ft | 257 kts | 287° |
| 2026-05-09 16:03 | 40.80610 | -73.32324 | 5000 ft | 257 kts | 287° |
| 2026-05-09 16:03 | 40.81332 | -73.34482 | 4995 ft | 257 kts | 287° |
| 2026-05-09 16:03 | 40.82039 | -73.36589 | 4986 ft | 242 kts | 287° |
| 2026-05-09 16:04 | 40.82510 | -73.38602 | 4899 ft | 221 kts | 272° |
| 2026-05-09 16:04 | 40.82661 | -73.40587 | 4595 ft | 216 kts | 268° |
| 2026-05-09 16:04 | 40.82752 | -73.42550 | 4295 ft | 212 kts | 267° |
| 2026-05-09 16:04 | 40.82838 | -73.44483 | 3986 ft | 210 kts | 267° |
| 2026-05-09 16:05 | 40.82921 | -73.46361 | 3774 ft | 198 kts | 267° |
| 2026-05-09 16:05 | 40.82998 | -73.48132 | 3436 ft | 190 kts | 267° |
| 2026-05-09 16:05 | 40.83067 | -73.49854 | 3008 ft | 186 kts | 267° |
| 2026-05-09 16:05 | 40.83124 | -73.51558 | 2552 ft | 185 kts | 267° |
| 2026-05-09 16:06 | 40.83172 | -73.53243 | 2279 ft | 183 kts | 267° |
| 2026-05-09 16:06 | 40.83212 | -73.54911 | 2049 ft | 181 kts | 267° |
| 2026-05-09 16:06 | 40.83245 | -73.56554 | 1995 ft | 178 kts | 267° |
| 2026-05-09 16:06 | 40.83277 | -73.58182 | 1982 ft | 177 kts | 267° |
| 2026-05-09 16:07 | 40.83310 | -73.59806 | 1981 ft | 177 kts | 267° |
| 2026-05-09 16:07 | 40.83339 | -73.61434 | 1986 ft | 177 kts | 267° |
| 2026-05-09 16:07 | 40.83149 | -73.63009 | 1982 ft | 174 kts | 242° |
| 2026-05-09 16:07 | 40.82272 | -73.64058 | 1980 ft | 175 kts | 205° |
| 2026-05-09 16:08 | 40.81045 | -73.64209 | 1971 ft | 180 kts | 180° |
| 2026-05-09 16:08 | 40.79795 | -73.64062 | 1980 ft | 180 kts | 184° |
| 2026-05-09 16:08 | 40.78611 | -73.64433 | 1991 ft | 173 kts | 210° |
| 2026-05-09 16:08 | 40.77583 | -73.65244 | 2005 ft | 172 kts | 214° |
| 2026-05-09 16:09 | 40.76546 | -73.66072 | 2002 ft | 176 kts | 213° |
| 2026-05-09 16:09 | 40.75489 | -73.66898 | 2004 ft | 177 kts | 213° |
| 2026-05-09 16:09 | 40.74429 | -73.67720 | 1989 ft | 176 kts | 213° |
| 2026-05-09 16:09 | 40.73427 | -73.68499 | 2000 ft | 158 kts | 213° |
| 2026-05-09 16:10 | 40.72520 | -73.69208 | 1890 ft | 146 kts | 213° |
| 2026-05-09 16:10 | 40.71674 | -73.69876 | 1705 ft | 137 kts | 213° |
| 2026-05-09 16:10 | 40.70878 | -73.70502 | 1494 ft | 131 kts | 213° |
| 2026-05-09 16:10 | 40.70108 | -73.71108 | 1318 ft | 128 kts | 212° |
| 2026-05-09 16:11 | 40.69348 | -73.71704 | 1148 ft | 126 kts | 212° |
| 2026-05-09 16:11 | 40.68605 | -73.72285 | 975 ft | 124 kts | 213° |
| 2026-05-09 16:11 | 40.67871 | -73.72864 | 810 ft | 125 kts | 211° |
| 2026-05-09 16:11 | 40.67119 | -73.73454 | 638 ft | 125 kts | 210° |
| 2026-05-09 16:12 | 40.66369 | -73.74042 | 487 ft | 126 kts | 208° |
| 2026-05-09 16:12 | 40.65617 | -73.74631 | 354 ft | 130 kts | 208° |
| 2026-05-09 16:12 | 40.64792 | -73.75278 | 134 ft | 136 kts | 208° |
| 2026-05-09 16:12 | 40.64024 | -73.75864 | 28 ft | 119 kts | 209° |
| 2026-05-09 16:13 | 40.63478 | -73.76303 | 30 ft | 65 kts | 212° |
| 2026-05-09 16:13 | 40.63141 | -73.76568 | 26 ft | 46 kts | 212° |
| 2026-05-09 16:13 | 40.62952 | -73.76834 | 27 ft | 31 kts | 240° |
| 2026-05-09 16:13 | 40.62928 | -73.76910 | 27 ft | 0 kts | 258° |
| 2026-05-09 16:14 | 40.62927 | -73.76936 | 28 ft | 10 kts | 270° |
| 2026-05-09 16:14 | 40.62970 | -73.77059 | 28 ft | 18 kts | 300° |
| 2026-05-09 16:14 | 40.63030 | -73.77193 | 33 ft | 17 kts | 301° |
| 2026-05-09 16:14 | 40.63093 | -73.77330 | 34 ft | 16 kts | 299° |
| 2026-05-09 16:15 | 40.63154 | -73.77464 | 36 ft | 17 kts | 300° |
| 2026-05-09 16:15 | 40.63222 | -73.77619 | 34 ft | 25 kts | 301° |
| 2026-05-09 16:15 | 40.63317 | -73.77827 | 33 ft | 25 kts | 301° |
| 2026-05-09 16:15 | 40.63409 | -73.78040 | 30 ft | 28 kts | 299° |
| 2026-05-09 16:16 | 40.63512 | -73.78268 | 31 ft | 30 kts | 301° |
| 2026-05-09 16:16 | 40.63621 | -73.78507 | 35 ft | 31 kts | 300° |
| 2026-05-09 16:16 | 40.63731 | -73.78751 | 35 ft | 31 kts | 301° |
| 2026-05-09 16:16 | 40.63826 | -73.78960 | 30 ft | 26 kts | 301° |
| 2026-05-09 16:17 | 40.63901 | -73.79124 | 28 ft | 14 kts | 301° |
| 2026-05-09 16:17 | 40.63961 | -73.79257 | 26 ft | 19 kts | 301° |
| 2026-05-09 16:17 | 40.64030 | -73.79409 | 29 ft | 20 kts | 301° |
| 2026-05-09 16:17 | 40.64129 | -73.79503 | 30 ft | 13 kts | 358° |
| 2026-05-09 16:18 | 40.64202 | -73.79488 | 31 ft | 6 kts | 39° |
| 2026-05-09 16:18 | 40.64215 | -73.79440 | 31 ft | 5 kts | 86° |
| 2026-05-09 16:18 | 40.64210 | -73.79422 | 31 ft | 0 kts | 113° |
| 2026-05-09 16:18 | 40.64203 | -73.79413 | 31 ft | 4 kts | 139° |
| 2026-05-09 16:19 | 40.64178 | -73.79410 | 31 ft | 8 kts | 177° |
| 2026-05-09 16:19 | 40.64135 | -73.79408 | 31 ft | 3 kts | 166° |
| 2026-05-09 16:19 | 40.64125 | -73.79391 | 31 ft | 1 kts | 119° |
| 2026-05-09 16:19 | 40.64122 | -73.79380 | 31 ft | 3 kts | 110° |
| 2026-05-09 16:20 | 40.64119 | -73.79369 | 31 ft | 1 kts | 109° |
| 2026-05-09 16:20 | 40.64118 | -73.79363 | 31 ft | 0 kts | 109° |